MQC9200 EDDK-DTMB
Flight info
| Callsign | MQC9200 |
|---|---|
| Flight time | N/A |
| Altitude | 33000 |
| Route | KUMIK Y854 BOMBI/N0467F340 DCT GIGET DCT ABUKA/N0467F310 DCT BATUB/N0468F350 DCT TIRUL M738 NATAG DCT UNTAD DCT ADOSA DCT TIPNI DCT PININ DCT TUNEX UG737 CBN UG727 DIDON G727 ATLEL |
| Aircraft | B77L/H-SDE1E2E3FGHIJ2J3J4J5M1RWXY/LB1D1 |
Departure
| Time | 2026-04-26 08:21 |
|---|---|
| Airport | Cologne Bonn Airport (EDDK) |
Arrival
| Time | N/A |
|---|---|
| Airport | Monastir Habib Bourguiba International Airport (DTMB) |
| Time | Latitude | Longitude | Altitude | Speed | Heading |
|---|---|---|---|---|---|
| 2026-04-26 08:09 | 50.87491 | 7.12912 | 237 ft | 0 kts | 227° |
| 2026-04-26 08:14 | 50.87496 | 7.12920 | 237 ft | 4 kts | 227° |
| 2026-04-26 08:14 | 50.87514 | 7.12951 | 237 ft | 4 kts | 227° |
| 2026-04-26 08:15 | 50.87529 | 7.12977 | 237 ft | 4 kts | 234° |
| 2026-04-26 08:15 | 50.87539 | 7.13012 | 237 ft | 4 kts | 276° |
| 2026-04-26 08:15 | 50.87529 | 7.13047 | 237 ft | 3 kts | 317° |
| 2026-04-26 08:15 | 50.87510 | 7.13074 | 237 ft | 3 kts | 317° |
| 2026-04-26 08:16 | 50.87508 | 7.13077 | 237 ft | 1 kts | 317° |
| 2026-04-26 08:18 | 50.87511 | 7.13072 | 237 ft | 4 kts | 317° |
| 2026-04-26 08:18 | 50.87556 | 7.13007 | 237 ft | 10 kts | 317° |
| 2026-04-26 08:18 | 50.87608 | 7.12932 | 237 ft | 10 kts | 317° |
| 2026-04-26 08:18 | 50.87660 | 7.12858 | 237 ft | 10 kts | 317° |
| 2026-04-26 08:19 | 50.87712 | 7.12783 | 237 ft | 10 kts | 317° |
| 2026-04-26 08:19 | 50.87764 | 7.12709 | 237 ft | 10 kts | 318° |
| 2026-04-26 08:19 | 50.87817 | 7.12636 | 237 ft | 10 kts | 327° |
| 2026-04-26 08:19 | 50.87887 | 7.12619 | 237 ft | 12 kts | 8° |
| 2026-04-26 08:20 | 50.87972 | 7.12694 | 238 ft | 18 kts | 51° |
| 2026-04-26 08:20 | 50.88008 | 7.12896 | 243 ft | 19 kts | 91° |
| 2026-04-26 08:20 | 50.87937 | 7.13068 | 243 ft | 24 kts | 136° |
| 2026-04-26 08:20 | 50.87691 | 7.13426 | 243 ft | 81 kts | 137° |
| 2026-04-26 08:21 | 50.87122 | 7.14254 | 255 ft | 138 kts | 138° |
| 2026-04-26 08:21 | 50.86299 | 7.15446 | 320 ft | 176 kts | 137° |
| 2026-04-26 08:21 | 50.85391 | 7.16728 | 782 ft | 178 kts | 138° |
| 2026-04-26 08:21 | 50.84442 | 7.18004 | 1384 ft | 177 kts | 137° |
| 2026-04-26 08:22 | 50.83534 | 7.19278 | 1944 ft | 178 kts | 137° |
| 2026-04-26 08:22 | 50.82556 | 7.20660 | 2207 ft | 199 kts | 135° |
| 2026-04-26 08:22 | 50.81736 | 7.22521 | 2393 ft | 217 kts | 111° |
| 2026-04-26 08:22 | 50.81307 | 7.24915 | 2657 ft | 236 kts | 99° |
| 2026-04-26 08:23 | 50.81066 | 7.27561 | 3165 ft | 248 kts | 96° |
| 2026-04-26 08:23 | 50.80846 | 7.30322 | 3789 ft | 257 kts | 95° |
| 2026-04-26 08:23 | 50.80622 | 7.33166 | 4519 ft | 262 kts | 95° |
| 2026-04-26 08:23 | 50.80386 | 7.36044 | 5183 ft | 267 kts | 95° |
| 2026-04-26 08:24 | 50.80144 | 7.38975 | 5866 ft | 273 kts | 95° |
| 2026-04-26 08:24 | 50.79886 | 7.41993 | 6513 ft | 280 kts | 95° |
| 2026-04-26 08:24 | 50.79622 | 7.45061 | 7203 ft | 284 kts | 95° |
| 2026-04-26 08:24 | 50.79353 | 7.48169 | 7915 ft | 286 kts | 95° |
| 2026-04-26 08:25 | 50.79078 | 7.51302 | 8614 ft | 290 kts | 95° |
| 2026-04-26 08:25 | 50.78627 | 7.54406 | 9210 ft | 295 kts | 114° |
| 2026-04-26 08:25 | 50.77306 | 7.56909 | 9752 ft | 303 kts | 145° |
| 2026-04-26 08:25 | 50.75486 | 7.58609 | 10355 ft | 306 kts | 151° |
| 2026-04-26 08:26 | 50.73564 | 7.60224 | 10751 ft | 322 kts | 152° |
| 2026-04-26 08:26 | 50.71510 | 7.61931 | 10933 ft | 345 kts | 152° |
| 2026-04-26 08:26 | 50.69317 | 7.63768 | 11104 ft | 369 kts | 152° |
| 2026-04-26 08:26 | 50.67001 | 7.65734 | 11496 ft | 385 kts | 152° |
| 2026-04-26 08:27 | 50.64624 | 7.67771 | 12175 ft | 393 kts | 151° |
| 2026-04-26 08:27 | 50.62210 | 7.69852 | 13058 ft | 397 kts | 151° |
| 2026-04-26 08:27 | 50.59790 | 7.71954 | 13998 ft | 399 kts | 151° |
| 2026-04-26 08:27 | 50.57348 | 7.74082 | 14789 ft | 403 kts | 151° |
| 2026-04-26 08:28 | 50.54884 | 7.76227 | 15564 ft | 407 kts | 151° |
| 2026-04-26 08:28 | 50.52398 | 7.78390 | 16341 ft | 410 kts | 151° |
| 2026-04-26 08:28 | 50.49892 | 7.80568 | 17113 ft | 413 kts | 152° |
| 2026-04-26 08:28 | 50.47365 | 7.82763 | 17870 ft | 417 kts | 152° |
| 2026-04-26 08:29 | 50.44811 | 7.84978 | 18619 ft | 421 kts | 152° |
| 2026-04-26 08:29 | 50.42233 | 7.87208 | 19275 ft | 425 kts | 152° |
| 2026-04-26 08:29 | 50.39632 | 7.89456 | 19881 ft | 430 kts | 152° |
| 2026-04-26 08:29 | 50.37001 | 7.91730 | 20472 ft | 434 kts | 152° |
| 2026-04-26 08:30 | 50.34348 | 7.94021 | 21148 ft | 436 kts | 152° |
| 2026-04-26 08:30 | 50.31680 | 7.96320 | 21804 ft | 439 kts | 152° |
| 2026-04-26 08:30 | 50.28992 | 7.98632 | 22435 ft | 442 kts | 152° |
| 2026-04-26 08:30 | 50.26323 | 8.00926 | 23057 ft | 446 kts | 153° |
| 2026-04-26 08:31 | 50.23591 | 8.03272 | 23658 ft | 450 kts | 153° |
| 2026-04-26 08:31 | 50.20832 | 8.05637 | 24184 ft | 454 kts | 153° |
| 2026-04-26 08:31 | 50.18055 | 8.08013 | 24706 ft | 457 kts | 153° |
| 2026-04-26 08:31 | 50.15261 | 8.10400 | 25244 ft | 459 kts | 153° |
| 2026-04-26 08:32 | 50.12456 | 8.12794 | 25766 ft | 461 kts | 153° |
| 2026-04-26 08:32 | 50.09637 | 8.15198 | 26278 ft | 463 kts | 153° |
| 2026-04-26 08:32 | 50.06797 | 8.17618 | 26777 ft | 466 kts | 153° |
| 2026-04-26 08:32 | 50.03942 | 8.20045 | 27255 ft | 469 kts | 153° |
| 2026-04-26 08:33 | 50.01070 | 8.22483 | 27717 ft | 472 kts | 153° |
| 2026-04-26 08:33 | 49.98176 | 8.24937 | 28165 ft | 475 kts | 153° |
| 2026-04-26 08:33 | 49.95261 | 8.27406 | 28625 ft | 478 kts | 153° |
| 2026-04-26 08:33 | 49.92336 | 8.29883 | 29078 ft | 481 kts | 153° |
| 2026-04-26 08:34 | 49.89389 | 8.32372 | 29477 ft | 483 kts | 154° |
| 2026-04-26 08:34 | 49.86431 | 8.34859 | 29951 ft | 484 kts | 154° |
| 2026-04-26 08:34 | 49.83475 | 8.37325 | 30524 ft | 481 kts | 154° |
| 2026-04-26 08:34 | 49.80531 | 8.39775 | 31033 ft | 479 kts | 154° |
| 2026-04-26 08:35 | 49.77597 | 8.42213 | 31474 ft | 479 kts | 154° |
| 2026-04-26 08:35 | 49.74660 | 8.44652 | 31873 ft | 479 kts | 154° |
| 2026-04-26 08:35 | 49.71721 | 8.47092 | 32277 ft | 479 kts | 154° |
| 2026-04-26 08:35 | 49.68785 | 8.49528 | 32689 ft | 479 kts | 154° |
| 2026-04-26 08:36 | 49.65854 | 8.51957 | 33117 ft | 478 kts | 154° |
| 2026-04-26 08:36 | 49.62921 | 8.54383 | 33475 ft | 478 kts | 154° |
| 2026-04-26 08:36 | 49.59988 | 8.56803 | 33826 ft | 479 kts | 154° |
| 2026-04-26 08:36 | 49.57054 | 8.59221 | 34231 ft | 478 kts | 154° |
| 2026-04-26 08:37 | 49.54123 | 8.61635 | 34576 ft | 477 kts | 154° |
| 2026-04-26 08:37 | 49.51194 | 8.64045 | 34869 ft | 477 kts | 154° |
| 2026-04-26 08:37 | 49.48262 | 8.66452 | 35146 ft | 478 kts | 154° |
| 2026-04-26 08:37 | 49.45288 | 8.68755 | 35236 ft | 480 kts | 159° |
| 2026-04-26 08:38 | 49.39109 | 8.72648 | 35278 ft | 479 kts | 161° |
| 2026-04-26 08:38 | 49.32966 | 8.76442 | 35273 ft | 474 kts | 161° |
| 2026-04-26 08:39 | 49.26866 | 8.80236 | 35267 ft | 472 kts | 160° |
| 2026-04-26 08:39 | 49.20783 | 8.84034 | 35253 ft | 472 kts | 160° |
| 2026-04-26 08:40 | 49.14700 | 8.87829 | 35244 ft | 472 kts | 161° |
| 2026-04-26 08:40 | 49.08621 | 8.91612 | 35249 ft | 472 kts | 161° |
| 2026-04-26 08:41 | 49.02532 | 8.95389 | 35248 ft | 472 kts | 161° |
| 2026-04-26 08:41 | 48.97471 | 8.98520 | 35249 ft | 473 kts | 161° |
| 2026-04-26 08:42 | 48.90387 | 9.02891 | 35251 ft | 473 kts | 161° |
| 2026-04-26 08:42 | 48.84284 | 9.06647 | 35248 ft | 473 kts | 161° |
| 2026-04-26 08:43 | 48.78180 | 9.10393 | 35230 ft | 473 kts | 161° |
| 2026-04-26 08:43 | 48.72072 | 9.14132 | 35251 ft | 473 kts | 161° |
| 2026-04-26 08:44 | 48.65964 | 9.17862 | 35231 ft | 473 kts | 161° |
| 2026-04-26 08:44 | 48.60837 | 9.20983 | 35242 ft | 474 kts | 161° |
| 2026-04-26 08:45 | 48.54757 | 9.24677 | 35242 ft | 475 kts | 161° |
| 2026-04-26 08:45 | 48.48628 | 9.28392 | 35233 ft | 475 kts | 161° |
| 2026-04-26 08:46 | 48.42450 | 9.32126 | 35229 ft | 476 kts | 161° |
| 2026-04-26 08:46 | 48.36334 | 9.35813 | 35235 ft | 476 kts | 161° |
| 2026-04-26 08:47 | 48.30182 | 9.39513 | 35237 ft | 476 kts | 161° |
| 2026-04-26 08:47 | 48.24033 | 9.43201 | 35226 ft | 476 kts | 161° |
| 2026-04-26 08:48 | 48.17880 | 9.46882 | 35235 ft | 476 kts | 161° |
| 2026-04-26 08:48 | 48.11720 | 9.50558 | 35242 ft | 476 kts | 161° |
| 2026-04-26 08:49 | 48.05560 | 9.54225 | 35245 ft | 477 kts | 161° |
| 2026-04-26 08:49 | 47.99595 | 9.58611 | 35240 ft | 481 kts | 150° |
| 2026-04-26 08:50 | 47.94077 | 9.64289 | 35249 ft | 482 kts | 148° |
| 2026-04-26 08:50 | 47.88565 | 9.70002 | 35249 ft | 482 kts | 148° |
| 2026-04-26 08:51 | 47.80263 | 9.78482 | 35232 ft | 483 kts | 148° |
| 2026-04-26 08:52 | 47.74712 | 9.84108 | 35246 ft | 483 kts | 148° |
| 2026-04-26 08:52 | 47.69157 | 9.89724 | 35245 ft | 483 kts | 148° |
| 2026-04-26 08:53 | 47.63594 | 9.95335 | 35245 ft | 484 kts | 148° |
| 2026-04-26 08:53 | 47.58022 | 10.00944 | 35244 ft | 484 kts | 148° |
| 2026-04-26 08:54 | 47.52449 | 10.06537 | 35241 ft | 484 kts | 148° |
| 2026-04-26 08:54 | 47.46863 | 10.12128 | 35240 ft | 485 kts | 148° |
| 2026-04-26 08:55 | 47.41271 | 10.17712 | 35243 ft | 486 kts | 148° |
| 2026-04-26 08:55 | 47.35674 | 10.23287 | 35238 ft | 485 kts | 148° |
| 2026-04-26 08:56 | 47.30077 | 10.28847 | 35246 ft | 485 kts | 148° |
| 2026-04-26 08:56 | 47.24512 | 10.34361 | 35240 ft | 485 kts | 148° |
| 2026-04-26 08:57 | 47.18905 | 10.39903 | 35244 ft | 486 kts | 148° |
| 2026-04-26 08:57 | 47.13287 | 10.45442 | 35244 ft | 487 kts | 148° |
| 2026-04-26 08:58 | 47.07612 | 10.50890 | 35238 ft | 487 kts | 153° |
| 2026-04-26 08:58 | 47.01474 | 10.54951 | 35249 ft | 482 kts | 165° |
| 2026-04-26 08:59 | 46.95053 | 10.57754 | 35249 ft | 481 kts | 166° |
| 2026-04-26 08:59 | 46.88643 | 10.60605 | 35251 ft | 481 kts | 165° |
| 2026-04-26 09:00 | 46.82208 | 10.63254 | 35270 ft | 479 kts | 168° |
| 2026-04-26 09:00 | 46.75724 | 10.65520 | 35251 ft | 479 kts | 169° |
| 2026-04-26 09:01 | 46.69244 | 10.67767 | 35271 ft | 478 kts | 168° |
| 2026-04-26 09:01 | 46.62775 | 10.70038 | 35241 ft | 478 kts | 168° |
| 2026-04-26 09:02 | 46.56311 | 10.72315 | 35230 ft | 478 kts | 168° |
| 2026-04-26 09:02 | 46.49882 | 10.74573 | 35250 ft | 478 kts | 168° |
| 2026-04-26 09:03 | 46.43408 | 10.76840 | 35238 ft | 479 kts | 168° |
| 2026-04-26 09:03 | 46.36927 | 10.79104 | 35246 ft | 479 kts | 168° |
| 2026-04-26 09:04 | 46.30444 | 10.81364 | 35232 ft | 479 kts | 168° |
| 2026-04-26 09:04 | 46.23953 | 10.83621 | 35236 ft | 480 kts | 168° |
| 2026-04-26 09:05 | 46.17451 | 10.85809 | 35219 ft | 480 kts | 169° |
| 2026-04-26 09:05 | 46.10927 | 10.87872 | 35216 ft | 480 kts | 169° |
| 2026-04-26 09:06 | 46.04405 | 10.89931 | 35196 ft | 480 kts | 169° |
| 2026-04-26 09:06 | 45.97891 | 10.92002 | 35191 ft | 480 kts | 169° |
| 2026-04-26 09:07 | 45.91374 | 10.94074 | 35182 ft | 480 kts | 169° |
| 2026-04-26 09:07 | 45.84850 | 10.96144 | 35150 ft | 480 kts | 169° |
| 2026-04-26 09:08 | 45.78321 | 10.98211 | 35139 ft | 480 kts | 169° |
| 2026-04-26 09:08 | 45.71801 | 11.00269 | 35146 ft | 480 kts | 169° |
| 2026-04-26 09:09 | 45.65322 | 11.02303 | 35117 ft | 480 kts | 170° |
| 2026-04-26 09:09 | 45.58723 | 11.03539 | 35113 ft | 478 kts | 176° |
| 2026-04-26 09:10 | 45.52097 | 11.04441 | 35107 ft | 479 kts | 176° |
| 2026-04-26 09:10 | 45.45456 | 11.05374 | 35095 ft | 479 kts | 176° |
| 2026-04-26 09:11 | 45.38820 | 11.06330 | 35104 ft | 479 kts | 176° |
| 2026-04-26 09:11 | 45.32192 | 11.07295 | 35109 ft | 479 kts | 176° |
| 2026-04-26 09:12 | 45.25564 | 11.08258 | 35103 ft | 479 kts | 176° |
| 2026-04-26 09:12 | 45.18931 | 11.09219 | 35098 ft | 479 kts | 176° |
| 2026-04-26 09:13 | 45.12307 | 11.10175 | 35113 ft | 478 kts | 176° |
| 2026-04-26 09:13 | 45.05684 | 11.11128 | 35106 ft | 478 kts | 176° |
| 2026-04-26 09:14 | 44.99063 | 11.12079 | 35172 ft | 478 kts | 176° |
| 2026-04-26 09:14 | 44.92448 | 11.13027 | 35166 ft | 478 kts | 176° |
| 2026-04-26 09:15 | 44.85873 | 11.13967 | 35176 ft | 478 kts | 176° |
| 2026-04-26 09:15 | 44.79256 | 11.14911 | 35178 ft | 478 kts | 176° |
| 2026-04-26 09:16 | 44.72644 | 11.15851 | 35191 ft | 478 kts | 176° |
| 2026-04-26 09:16 | 44.66027 | 11.16791 | 35197 ft | 478 kts | 176° |
| 2026-04-26 09:17 | 44.59410 | 11.17729 | 35199 ft | 478 kts | 176° |
| 2026-04-26 09:17 | 44.52796 | 11.18664 | 35198 ft | 478 kts | 176° |
| 2026-04-26 09:18 | 44.46185 | 11.19595 | 35208 ft | 477 kts | 176° |
| 2026-04-26 09:18 | 44.39576 | 11.20526 | 35211 ft | 477 kts | 176° |
| 2026-04-26 09:19 | 44.32966 | 11.21454 | 35213 ft | 477 kts | 176° |
| 2026-04-26 09:19 | 44.26358 | 11.22009 | 35210 ft | 475 kts | 181° |
| 2026-04-26 09:20 | 44.19752 | 11.22174 | 35209 ft | 475 kts | 181° |
| 2026-04-26 09:20 | 44.13142 | 11.22338 | 35205 ft | 475 kts | 181° |
| 2026-04-26 09:21 | 44.06539 | 11.22524 | 35193 ft | 474 kts | 181° |
| 2026-04-26 09:21 | 43.99946 | 11.22725 | 35171 ft | 474 kts | 181° |
| 2026-04-26 09:22 | 43.93353 | 11.22924 | 35158 ft | 474 kts | 181° |
| 2026-04-26 09:22 | 43.86760 | 11.23122 | 35162 ft | 474 kts | 181° |
| 2026-04-26 09:23 | 43.80205 | 11.23319 | 35156 ft | 474 kts | 181° |
| 2026-04-26 09:23 | 43.73609 | 11.23517 | 35158 ft | 474 kts | 181° |
| 2026-04-26 09:24 | 43.67010 | 11.23715 | 35150 ft | 474 kts | 181° |
| 2026-04-26 09:24 | 43.60417 | 11.23911 | 35165 ft | 474 kts | 181° |
| 2026-04-26 09:25 | 43.53821 | 11.24107 | 35157 ft | 474 kts | 181° |
| 2026-04-26 09:25 | 43.47220 | 11.24302 | 35169 ft | 475 kts | 181° |
| 2026-04-26 09:26 | 43.40618 | 11.24498 | 35161 ft | 475 kts | 181° |
| 2026-04-26 09:26 | 43.34011 | 11.24693 | 35162 ft | 475 kts | 181° |
| 2026-04-26 09:27 | 43.27407 | 11.24889 | 35152 ft | 475 kts | 180° |
| 2026-04-26 09:27 | 43.20800 | 11.25084 | 35156 ft | 475 kts | 180° |
| 2026-04-26 09:28 | 43.14199 | 11.25277 | 35169 ft | 475 kts | 180° |
| 2026-04-26 09:28 | 43.07595 | 11.25471 | 35165 ft | 475 kts | 181° |
| 2026-04-26 09:29 | 43.00981 | 11.25663 | 35156 ft | 475 kts | 180° |
| 2026-04-26 09:29 | 42.94375 | 11.25857 | 35152 ft | 475 kts | 180° |
| 2026-04-26 09:30 | 42.87763 | 11.26049 | 35168 ft | 475 kts | 180° |
| 2026-04-26 09:30 | 42.81157 | 11.26241 | 35164 ft | 475 kts | 180° |
| 2026-04-26 09:31 | 42.75668 | 11.26401 | 35169 ft | 475 kts | 180° |
| 2026-04-26 09:31 | 42.69061 | 11.26592 | 35166 ft | 475 kts | 180° |
| 2026-04-26 09:32 | 42.62450 | 11.26782 | 35163 ft | 475 kts | 180° |
| 2026-04-26 09:32 | 42.55843 | 11.26972 | 35165 ft | 475 kts | 180° |
| 2026-04-26 09:33 | 42.49235 | 11.27162 | 35171 ft | 475 kts | 180° |
| 2026-04-26 09:33 | 42.42637 | 11.27351 | 35166 ft | 475 kts | 180° |
| 2026-04-26 09:34 | 42.36033 | 11.27541 | 35168 ft | 474 kts | 180° |
| 2026-04-26 09:34 | 42.29437 | 11.27730 | 35170 ft | 474 kts | 180° |
| 2026-04-26 09:35 | 42.22841 | 11.27918 | 35170 ft | 474 kts | 180° |
| 2026-04-26 09:35 | 42.16250 | 11.28105 | 35169 ft | 474 kts | 180° |
| 2026-04-26 09:36 | 42.09656 | 11.28292 | 35170 ft | 474 kts | 180° |
| 2026-04-26 09:36 | 42.03104 | 11.28478 | 35168 ft | 474 kts | 180° |
| 2026-04-26 09:37 | 41.96510 | 11.28664 | 35177 ft | 474 kts | 180° |
| 2026-04-26 09:37 | 41.89916 | 11.28850 | 35177 ft | 474 kts | 180° |
| 2026-04-26 09:38 | 41.83321 | 11.29036 | 35175 ft | 474 kts | 180° |
| 2026-04-26 09:38 | 41.76722 | 11.29221 | 35173 ft | 474 kts | 180° |
| 2026-04-26 09:39 | 41.70124 | 11.29406 | 35172 ft | 474 kts | 180° |
| 2026-04-26 09:39 | 41.63523 | 11.29591 | 35175 ft | 474 kts | 180° |
| 2026-04-26 09:40 | 41.56926 | 11.29775 | 35181 ft | 474 kts | 180° |
| 2026-04-26 09:40 | 41.50326 | 11.29959 | 35179 ft | 474 kts | 180° |
| 2026-04-26 09:41 | 41.43722 | 11.30143 | 35180 ft | 475 kts | 180° |
| 2026-04-26 09:41 | 41.37117 | 11.30326 | 35181 ft | 475 kts | 180° |
| 2026-04-26 09:42 | 41.30506 | 11.30509 | 35183 ft | 475 kts | 180° |
| 2026-04-26 09:42 | 41.23895 | 11.30692 | 35182 ft | 475 kts | 180° |
| 2026-04-26 09:43 | 41.17285 | 11.30874 | 35178 ft | 475 kts | 179° |